Kechi, Kansas
Current Conditions -  °F | °C
As of 1:54 PM on Tuesday 25 Nov 2014 (Local Time) from KAAO Reporting Station
Clear Clear  
Wind Chill: 44°   Ceiling: Unl
Heat Index: 49°   Visibility: 10mi
Dew Point: 23°   Wind: 12mph
Humidity: 36%   Direction: 190°S
Pressure: 30.1"   Gusts: NA
Location:  37.8°N, 97.28°W
Report Text: KAAO 251954Z AUTO 19010KT 10SM CLR 09/M05 A3010 RMK AO2 SLP203 T00941050
Loading
Personal Weather Stations






























Interactive Weather Map New forecast layout! Learn more

10-Day Weather Forecast

Advertisements
Track Severe Weather on mobile